Time;durP1;ratioP1;P1;durP2;ratioP2;P2;SDS_P1;SDS_P2;PMS_P1;PMS_P2;Temp;Humidity;BMP_temperature;BMP_pressure;BME280_temperature;BME280_humidity;BME280_pressure;Samples;Min_cycle;Max_cycle;Signal;HPM_P1;HPM_P2
2021/09/15 00:00:38;;;;;;;2.95;1.25;;;;;;;;;;2066528;28;20026;-68
2021/09/15 00:01:57;;;;;;;1.85;1.42;;;;;;;;;;2069663;28;20026;-68
2021/09/15 00:03:15;;;;;;;3.03;1.20;;;;;;;;;;2074020;28;20046;-68
2021/09/15 00:04:34;;;;;;;2.88;1.52;;;;;;;;;;2072144;28;20030;-68
2021/09/15 00:05:53;;;;;;;1.30;1.20;;;;;;;;;;2070631;28;20045;-67
2021/09/15 00:07:12;;;;;;;2.03;1.17;;;;;;;;;;2072890;28;20100;-69
2021/09/15 00:08:31;;;;;;;2.03;1.30;;;;;;;;;;2072656;28;20484;-69
2021/09/15 00:09:50;;;;;;;2.33;1.30;;;;;;;;;;2071215;28;20034;-68
2021/09/15 00:11:11;;;;;;;4.82;1.20;;;;;;;;;;2071570;28;20030;-69
2021/09/15 00:12:31;;;;;;;4.45;1.13;;;;;;;;;;2072340;28;20030;-69
2021/09/15 00:13:49;;;;;;;3.97;1.33;;;;;;;;;;2071814;28;20030;-69
2021/09/15 00:15:09;;;;;;;1.63;1.20;;;;;;;;;;2073051;28;20532;-68
2021/09/15 00:16:28;;;;;;;1.92;1.30;;;;;;;;;;2072600;28;20030;-68
2021/09/15 00:17:46;;;;;;;2.83;1.23;;;;;;;;;;2073498;28;20033;-68
2021/09/15 00:19:05;;;;;;;4.55;1.52;;;;;;;;;;2072377;28;20038;-68
2021/09/15 00:20:24;;;;;;;2.00;1.30;;;;;;;;;;2071484;28;20029;-69
2021/09/15 00:21:43;;;;;;;2.38;1.20;;;;;;;;;;2072617;28;20112;-68
2021/09/15 00:23:02;;;;;;;1.55;1.30;;;;;;;;;;2067214;28;20034;-68
2021/09/15 00:24:21;;;;;;;2.97;1.65;;;;;;;;;;2072157;28;20081;-68
2021/09/15 00:25:40;;;;;;;2.15;1.52;;;;;;;;;;2071768;28;20030;-68
2021/09/15 00:26:59;;;;;;;3.90;1.10;;;;;;;;;;2070245;28;20492;-68
2021/09/15 00:28:18;;;;;;;1.90;1.30;;;;;;;;;;2073101;28;20037;-68
2021/09/15 00:29:38;;;;;;;3.20;1.33;;;;;;;;;;2075353;28;20022;-68
2021/09/15 00:30:57;;;;;;;2.58;1.45;;;;;;;;;;2072735;28;20061;-68
2021/09/15 00:32:16;;;;;;;7.10;1.50;;;;;;;;;;2071784;28;20026;-68
2021/09/15 00:33:35;;;;;;;3.88;1.50;;;;;;;;;;2071655;28;20022;-69
2021/09/15 00:34:54;;;;;;;3.35;1.52;;;;;;;;;;2069733;28;20102;-68
2021/09/15 00:36:13;;;;;;;3.30;1.30;;;;;;;;;;2072331;28;20492;-68
2021/09/15 00:37:32;;;;;;;1.50;1.20;;;;;;;;;;2070242;28;20485;-68
2021/09/15 00:38:51;;;;;;;2.00;1.42;;;;;;;;;;2066746;28;20018;-68
2021/09/15 00:40:10;;;;;;;2.35;1.30;;;;;;;;;;2071560;28;20034;-69
2021/09/15 00:41:29;;;;;;;1.85;1.20;;;;;;;;;;2068730;28;20480;-69
2021/09/15 00:42:48;;;;;;;2.92;1.20;;;;;;;;;;2074345;28;20022;-68
2021/09/15 00:44:08;;;;;;;3.35;1.30;;;;;;;;;;2074787;28;20507;-69
2021/09/15 00:45:26;;;;;;;1.33;1.17;;;;;;;;;;2070584;28;20045;-69
2021/09/15 00:46:45;;;;;;;2.92;1.08;;;;;;;;;;2075207;28;20100;-68
2021/09/15 00:48:04;;;;;;;3.10;1.30;;;;;;;;;;2070039;28;20397;-68
2021/09/15 00:49:23;;;;;;;2.05;1.38;;;;;;;;;;2072994;28;20408;-68
2021/09/15 00:50:42;;;;;;;3.08;1.35;;;;;;;;;;2069972;28;20017;-68
2021/09/15 00:52:01;;;;;;;4.95;1.40;;;;;;;;;;2067336;28;20101;-68
2021/09/15 00:53:20;;;;;;;2.90;1.40;;;;;;;;;;2071314;28;20034;-68
2021/09/15 00:54:39;;;;;;;1.45;1.30;;;;;;;;;;2074172;28;20387;-69
2021/09/15 00:55:58;;;;;;;4.47;1.42;;;;;;;;;;2072305;28;20025;-68
2021/09/15 00:57:17;;;;;;;1.80;1.40;;;;;;;;;;2074676;28;20030;-69
2021/09/15 00:58:36;;;;;;;2.80;1.38;;;;;;;;;;2070069;28;20029;-69
2021/09/15 00:59:55;;;;;;;7.13;1.50;;;;;;;;;;2068343;28;20129;-68
2021/09/15 01:01:14;;;;;;;4.45;1.90;;;;;;;;;;2076013;28;20025;-69
2021/09/15 01:02:33;;;;;;;9.18;1.73;;;;;;;;;;2078690;28;20033;-68
2021/09/15 01:03:52;;;;;;;3.90;1.80;;;;;;;;;;2070180;28;20042;-68
2021/09/15 01:05:11;;;;;;;2.85;1.50;;;;;;;;;;2074350;28;20073;-68
2021/09/15 01:06:31;;;;;;;2.28;1.48;;;;;;;;;;2077744;28;20483;-68
2021/09/15 01:07:50;;;;;;;4.43;1.30;;;;;;;;;;2072225;28;20038;-68
2021/09/15 01:09:10;;;;;;;6.05;1.73;;;;;;;;;;2071245;28;20397;-68
2021/09/15 01:10:29;;;;;;;3.28;1.38;;;;;;;;;;2075469;28;20038;-68
2021/09/15 01:11:48;;;;;;;8.07;1.73;;;;;;;;;;2073155;28;20026;-68
2021/09/15 01:13:07;;;;;;;3.95;1.92;;;;;;;;;;2072109;28;20472;-68
2021/09/15 01:14:26;;;;;;;1.48;1.27;;;;;;;;;;2073314;28;20026;-68
2021/09/15 01:15:45;;;;;;;10.02;2.08;;;;;;;;;;2073222;28;20034;-68
2021/09/15 01:17:04;;;;;;;1.92;1.48;;;;;;;;;;2067617;28;20034;-68
2021/09/15 01:18:23;;;;;;;2.92;1.30;;;;;;;;;;2071988;28;20037;-68
2021/09/15 01:19:42;;;;;;;3.50;1.80;;;;;;;;;;2076009;28;20030;-68
2021/09/15 01:21:01;;;;;;;5.55;1.33;;;;;;;;;;2068318;28;20514;-68
2021/09/15 01:22:20;;;;;;;2.50;1.40;;;;;;;;;;2074665;28;20388;-68
2021/09/15 01:23:39;;;;;;;2.10;1.80;;;;;;;;;;2070486;28;20038;-69
2021/09/15 01:24:58;;;;;;;2.70;1.38;;;;;;;;;;2070541;28;20038;-69
2021/09/15 01:26:17;;;;;;;2.17;1.15;;;;;;;;;;2071407;28;20022;-68
2021/09/15 01:27:36;;;;;;;2.22;1.17;;;;;;;;;;2068409;28;20021;-69
2021/09/15 01:28:54;;;;;;;3.13;1.55;;;;;;;;;;2080610;28;20092;-69
2021/09/15 01:30:13;;;;;;;2.42;1.63;;;;;;;;;;2072132;28;20057;-69
2021/09/15 01:31:32;;;;;;;2.85;1.80;;;;;;;;;;2072093;28;20140;-69
2021/09/15 01:32:51;;;;;;;3.78;1.70;;;;;;;;;;2072431;28;20104;-69
2021/09/15 01:34:10;;;;;;;2.95;1.75;;;;;;;;;;2070442;28;20030;-69
2021/09/15 01:35:29;;;;;;;4.18;2.10;;;;;;;;;;2072027;28;20026;-69
2021/09/15 01:36:48;;;;;;;5.53;1.45;;;;;;;;;;2069458;28;20792;-69
2021/09/15 01:38:07;;;;;;;3.67;1.50;;;;;;;;;;2069652;28;20046;-69
2021/09/15 01:39:25;;;;;;;7.75;1.73;;;;;;;;;;2076872;28;20029;-68
2021/09/15 01:40:44;;;;;;;5.55;1.70;;;;;;;;;;2074403;28;20033;-70
2021/09/15 01:42:04;;;;;;;2.15;1.30;;;;;;;;;;2074179;28;20444;-70
2021/09/15 01:43:23;;;;;;;5.78;1.50;;;;;;;;;;2068196;28;20038;-69
2021/09/15 01:44:43;;;;;;;4.07;1.67;;;;;;;;;;2069866;28;20033;-68
2021/09/15 01:46:02;;;;;;;2.60;1.60;;;;;;;;;;2073167;28;20447;-69
2021/09/15 01:47:21;;;;;;;3.15;1.63;;;;;;;;;;2070940;28;20490;-68
2021/09/15 01:48:40;;;;;;;2.22;1.52;;;;;;;;;;2070263;28;20031;-69
2021/09/15 01:49:59;;;;;;;2.45;1.58;;;;;;;;;;2070863;28;20030;-69
2021/09/15 01:51:18;;;;;;;3.38;1.55;;;;;;;;;;2069488;28;20022;-68
2021/09/15 01:52:38;;;;;;;3.65;1.38;;;;;;;;;;2070220;28;20022;-69
2021/09/15 01:53:56;;;;;;;2.67;1.80;;;;;;;;;;2068309;28;20022;-69
2021/09/15 01:55:25;;;;;;;3.15;1.35;;;;;;;;;;2071522;28;20444;-69
2021/09/15 01:56:44;;;;;;;3.60;1.63;;;;;;;;;;2073795;28;20042;-69
2021/09/15 01:58:08;;;;;;;2.63;1.40;;;;;;;;;;2072305;28;20106;-70
2021/09/15 01:59:27;;;;;;;4.82;1.77;;;;;;;;;;2069141;28;20030;-69
2021/09/15 02:00:46;;;;;;;3.92;1.60;;;;;;;;;;2073357;28;20108;-69
2021/09/15 02:02:05;;;;;;;7.65;1.77;;;;;;;;;;2072343;28;20026;-69
2021/09/15 02:03:24;;;;;;;4.45;1.52;;;;;;;;;;2072605;28;20988;-68
2021/09/15 02:04:43;;;;;;;1.70;1.40;;;;;;;;;;2069300;28;20472;-69
2021/09/15 02:06:02;;;;;;;3.83;1.90;;;;;;;;;;2070227;28;20030;-69
2021/09/15 02:07:21;;;;;;;2.30;1.60;;;;;;;;;;2072188;28;20041;-70
2021/09/15 02:08:40;;;;;;;2.50;1.40;;;;;;;;;;2069427;28;20918;-69
2021/09/15 02:09:59;;;;;;;1.42;1.27;;;;;;;;;;2071900;28;20407;-69
2021/09/15 02:11:18;;;;;;;3.20;1.70;;;;;;;;;;2075885;28;20025;-70
2021/09/15 02:12:39;;;;;;;3.90;1.92;;;;;;;;;;2074992;28;20030;-69
2021/09/15 02:13:58;;;;;;;2.47;1.58;;;;;;;;;;2075283;28;20026;-70
2021/09/15 02:15:17;;;;;;;1.77;1.40;;;;;;;;;;2074135;28;20022;-69
2021/09/15 02:16:36;;;;;;;4.53;1.75;;;;;;;;;;2073643;28;20109;-69
2021/09/15 02:17:54;;;;;;;3.00;1.50;;;;;;;;;;2074422;28;20037;-69
2021/09/15 02:19:14;;;;;;;2.30;1.48;;;;;;;;;;2074124;28;20108;-69
2021/09/15 02:20:32;;;;;;;3.25;1.60;;;;;;;;;;2068679;28;20030;-68
2021/09/15 02:21:51;;;;;;;2.85;1.75;;;;;;;;;;2067219;28;20038;-69
2021/09/15 02:23:10;;;;;;;3.08;1.52;;;;;;;;;;2073928;28;20041;-68
2021/09/15 02:24:30;;;;;;;4.65;1.48;;;;;;;;;;2072746;28;20034;-69
2021/09/15 02:25:49;;;;;;;2.15;1.70;;;;;;;;;;2076694;28;20030;-70
2021/09/15 02:27:09;;;;;;;1.50;1.17;;;;;;;;;;2073662;28;20030;-69
2021/09/15 02:28:27;;;;;;;3.45;1.73;;;;;;;;;;2075829;28;20037;-69
2021/09/15 02:29:46;;;;;;;4.32;1.67;;;;;;;;;;2072739;28;20029;-69
2021/09/15 02:31:06;;;;;;;3.70;1.70;;;;;;;;;;2074396;28;20026;-72
2021/09/15 02:32:25;;;;;;;3.17;1.55;;;;;;;;;;2068158;28;20029;-70
2021/09/15 02:33:44;;;;;;;5.25;1.50;;;;;;;;;;2071984;28;20431;-69
2021/09/15 02:35:02;;;;;;;5.10;1.20;;;;;;;;;;2071027;28;20018;-69
2021/09/15 02:36:22;;;;;;;1.77;1.50;;;;;;;;;;2073717;28;20038;-69
2021/09/15 02:37:41;;;;;;;4.07;1.30;;;;;;;;;;2073325;28;20435;-69
2021/09/15 02:38:59;;;;;;;4.43;1.35;;;;;;;;;;2071589;28;20509;-70
2021/09/15 02:40:18;;;;;;;2.13;1.52;;;;;;;;;;2073070;28;20428;-70
2021/09/15 02:41:37;;;;;;;1.55;1.10;;;;;;;;;;2073787;28;20439;-68
2021/09/15 02:42:56;;;;;;;3.17;1.52;;;;;;;;;;2072215;28;20021;-68
2021/09/15 02:44:15;;;;;;;7.40;1.63;;;;;;;;;;2073472;28;20030;-71
2021/09/15 02:45:34;;;;;;;3.33;1.42;;;;;;;;;;2073686;28;20170;-68
2021/09/15 02:46:53;;;;;;;3.88;1.40;;;;;;;;;;2070873;28;20022;-69
2021/09/15 02:48:12;;;;;;;4.47;1.85;;;;;;;;;;2073694;28;20058;-68
2021/09/15 02:49:31;;;;;;;1.40;1.30;;;;;;;;;;2067786;28;20034;-69
2021/09/15 02:50:50;;;;;;;3.70;1.50;;;;;;;;;;2069031;28;20432;-68
2021/09/15 02:52:09;;;;;;;3.17;2.00;;;;;;;;;;2066606;28;20030;-68
2021/09/15 02:53:28;;;;;;;6.53;1.92;;;;;;;;;;2075630;28;20030;-69
2021/09/15 02:54:46;;;;;;;3.72;1.75;;;;;;;;;;2067605;28;20030;-68
2021/09/15 02:56:05;;;;;;;5.25;1.48;;;;;;;;;;2068535;28;20432;-69
2021/09/15 02:57:25;;;;;;;2.72;1.50;;;;;;;;;;2073762;28;20416;-69
2021/09/15 02:58:43;;;;;;;5.75;1.70;;;;;;;;;;2072638;28;20038;-69
2021/09/15 03:00:04;;;;;;;1.95;1.75;;;;;;;;;;2072260;28;20033;-69
2021/09/15 03:01:23;;;;;;;3.45;1.40;;;;;;;;;;2073209;28;20038;-69
2021/09/15 03:02:42;;;;;;;2.05;1.30;;;;;;;;;;2073881;28;20042;-69
2021/09/15 03:04:01;;;;;;;2.53;1.20;;;;;;;;;;2073009;28;20049;-69
2021/09/15 03:05:20;;;;;;;1.50;1.40;;;;;;;;;;2071110;28;20033;-69
2021/09/15 03:06:39;;;;;;;3.55;2.22;;;;;;;;;;2073536;28;20109;-69
2021/09/15 03:07:58;;;;;;;6.15;2.20;;;;;;;;;;2071975;28;20396;-69
2021/09/15 03:09:17;;;;;;;4.35;1.75;;;;;;;;;;2075291;28;20026;-69
2021/09/15 03:10:36;;;;;;;2.17;1.38;;;;;;;;;;2074134;28;20033;-69
2021/09/15 03:11:55;;;;;;;5.30;2.65;;;;;;;;;;2067422;28;20477;-68
2021/09/15 03:13:14;;;;;;;5.50;1.67;;;;;;;;;;2073244;28;20019;-69
2021/09/15 03:14:33;;;;;;;5.30;1.67;;;;;;;;;;2073419;28;20467;-69
2021/09/15 03:15:51;;;;;;;2.20;1.52;;;;;;;;;;2072059;28;20021;-68
2021/09/15 03:17:10;;;;;;;3.78;1.60;;;;;;;;;;2068569;28;20034;-69
2021/09/15 03:18:29;;;;;;;9.00;1.60;;;;;;;;;;2066854;28;20038;-68
2021/09/15 03:19:48;;;;;;;4.88;1.67;;;;;;;;;;2070402;28;20532;-69
2021/09/15 03:21:07;;;;;;;3.72;1.60;;;;;;;;;;2073922;28;20034;-69
2021/09/15 03:22:26;;;;;;;2.28;1.70;;;;;;;;;;2073456;28;20030;-69
2021/09/15 03:23:45;;;;;;;3.95;1.80;;;;;;;;;;2068823;28;20037;-69
2021/09/15 03:25:04;;;;;;;4.88;1.60;;;;;;;;;;2069610;28;20030;-69
2021/09/15 03:26:23;;;;;;;5.22;1.83;;;;;;;;;;2073085;28;20481;-70
2021/09/15 03:27:41;;;;;;;3.50;1.58;;;;;;;;;;2073736;28;20488;-69
2021/09/15 03:29:00;;;;;;;3.95;1.65;;;;;;;;;;2074908;28;20424;-69
2021/09/15 03:30:19;;;;;;;2.75;2.25;;;;;;;;;;2070575;28;20046;-70
2021/09/15 03:31:38;;;;;;;2.25;1.83;;;;;;;;;;2074482;28;20029;-68
2021/09/15 03:32:57;;;;;;;7.25;1.80;;;;;;;;;;2076526;28;20018;-68
2021/09/15 03:34:16;;;;;;;2.03;1.80;;;;;;;;;;2073778;28;20026;-69
2021/09/15 03:35:35;;;;;;;3.88;1.73;;;;;;;;;;2073394;28;20021;-69
2021/09/15 03:36:54;;;;;;;5.20;1.95;;;;;;;;;;2073818;28;20034;-69
2021/09/15 03:38:13;;;;;;;2.92;1.80;;;;;;;;;;2072260;28;20488;-68
2021/09/15 03:39:32;;;;;;;2.70;2.00;;;;;;;;;;2073486;28;20030;-69
2021/09/15 03:40:51;;;;;;;3.28;1.83;;;;;;;;;;2073657;28;20120;-69
2021/09/15 03:42:10;;;;;;;2.40;1.85;;;;;;;;;;2068114;28;20054;-69
2021/09/15 03:43:29;;;;;;;6.68;2.13;;;;;;;;;;2073603;28;20038;-69
2021/09/15 03:44:48;;;;;;;6.65;2.10;;;;;;;;;;2072402;28;20025;-69
2021/09/15 03:46:07;;;;;;;3.33;1.85;;;;;;;;;;2072319;28;20026;-69
2021/09/15 03:47:26;;;;;;;7.32;1.83;;;;;;;;;;2070368;28;20026;-69
2021/09/15 03:48:44;;;;;;;4.95;2.30;;;;;;;;;;2075519;28;20033;-69
2021/09/15 03:50:03;;;;;;;2.72;1.70;;;;;;;;;;2073566;28;20034;-69
2021/09/15 03:51:22;;;;;;;6.45;2.60;;;;;;;;;;2073265;28;20030;-69
2021/09/15 03:52:41;;;;;;;4.15;2.00;;;;;;;;;;2072804;28;20026;-69
2021/09/15 03:54:00;;;;;;;2.90;2.35;;;;;;;;;;2075624;28;20115;-69
2021/09/15 03:55:18;;;;;;;2.83;2.10;;;;;;;;;;2075116;28;20037;-69
2021/09/15 03:56:37;;;;;;;2.30;2.10;;;;;;;;;;2073244;28;20124;-68
2021/09/15 03:57:56;;;;;;;2.78;2.00;;;;;;;;;;2070859;28;20027;-69
2021/09/15 03:59:15;;;;;;;5.18;2.65;;;;;;;;;;2071357;28;20038;-69
2021/09/15 04:00:34;;;;;;;3.55;2.05;;;;;;;;;;2072214;28;20041;-68
2021/09/15 04:01:53;;;;;;;2.70;2.15;;;;;;;;;;2075396;28;20053;-69
2021/09/15 04:03:12;;;;;;;5.22;2.00;;;;;;;;;;2070781;28;20045;-69
2021/09/15 04:04:31;;;;;;;3.80;1.63;;;;;;;;;;2075213;28;20416;-69
2021/09/15 04:05:50;;;;;;;5.18;1.88;;;;;;;;;;2071918;28;20029;-69
2021/09/15 04:07:09;;;;;;;3.85;2.13;;;;;;;;;;2073433;28;20105;-69
2021/09/15 04:08:28;;;;;;;3.47;2.00;;;;;;;;;;2072981;28;20108;-70
2021/09/15 04:09:47;;;;;;;2.10;1.52;;;;;;;;;;2076732;28;21149;-70
2021/09/15 04:11:05;;;;;;;3.13;2.13;;;;;;;;;;2070235;28;20027;-70
2021/09/15 04:12:25;;;;;;;2.58;1.80;;;;;;;;;;2071300;28;20030;-70
2021/09/15 04:13:44;;;;;;;2.95;2.08;;;;;;;;;;2075682;28;20480;-70
2021/09/15 04:15:04;;;;;;;5.07;2.58;;;;;;;;;;2075389;28;20026;-70
2021/09/15 04:16:23;;;;;;;9.48;2.10;;;;;;;;;;2066638;28;20435;-69
2021/09/15 04:17:42;;;;;;;5.53;2.78;;;;;;;;;;2075329;28;20030;-70
2021/09/15 04:19:02;;;;;;;2.10;1.90;;;;;;;;;;2072648;28;20034;-69
2021/09/15 04:20:21;;;;;;;7.03;2.40;;;;;;;;;;2068550;28;20030;-70
2021/09/15 04:21:41;;;;;;;3.72;2.20;;;;;;;;;;2068620;28;20025;-70
2021/09/15 04:23:00;;;;;;;9.10;1.98;;;;;;;;;;2072382;28;20018;-70
2021/09/15 04:32:28;;;;;;;15.85;3.85;;;;;;;;;;2072316;28;20101;-70
2021/09/15 04:33:47;;;;;;;12.60;2.85;;;;;;;;;;2067484;28;20497;-70
2021/09/15 04:35:06;;;;;;;11.82;2.83;;;;;;;;;;2072738;28;20025;-71
2021/09/15 04:36:25;;;;;;;5.55;2.05;;;;;;;;;;2072260;28;20436;-71
2021/09/15 04:37:46;;;;;;;17.33;2.65;;;;;;;;;;2072448;28;20356;-71
2021/09/15 04:39:05;;;;;;;10.15;2.90;;;;;;;;;;2072668;28;20101;-70
2021/09/15 04:40:24;;;;;;;17.00;3.53;;;;;;;;;;2074078;28;20038;-70
2021/09/15 04:41:43;;;;;;;10.25;2.67;;;;;;;;;;2071393;28;20034;-72
2021/09/15 04:43:03;;;;;;;8.50;2.58;;;;;;;;;;2070667;28;20400;-71
2021/09/15 04:44:21;;;;;;;5.35;2.60;;;;;;;;;;2066465;28;20496;-71
2021/09/15 04:45:40;;;;;;;9.05;2.35;;;;;;;;;;2070412;28;20026;-70
2021/09/15 04:46:59;;;;;;;11.10;2.10;;;;;;;;;;2073449;28;20513;-70
2021/09/15 04:48:18;;;;;;;11.43;3.22;;;;;;;;;;2069832;28;20034;-70
2021/09/15 04:49:37;;;;;;;16.23;2.63;;;;;;;;;;2072052;28;20062;-72
2021/09/15 04:50:56;;;;;;;8.93;2.38;;;;;;;;;;2077214;28;20014;-70
2021/09/15 04:52:15;;;;;;;27.75;3.03;;;;;;;;;;2071149;28;20458;-70
2021/09/15 04:53:34;;;;;;;18.75;2.83;;;;;;;;;;2072631;28;20452;-69
2021/09/15 04:54:53;;;;;;;11.23;2.78;;;;;;;;;;2078972;28;20026;-70
2021/09/15 04:56:11;;;;;;;16.52;3.42;;;;;;;;;;2073411;28;20038;-70
2021/09/15 04:57:30;;;;;;;13.82;2.75;;;;;;;;;;2072527;28;20508;-69
2021/09/15 04:58:49;;;;;;;7.15;2.40;;;;;;;;;;2068634;28;20030;-69
2021/09/15 05:00:08;;;;;;;19.92;2.47;;;;;;;;;;2067476;28;20041;-69
2021/09/15 05:01:27;;;;;;;13.63;2.80;;;;;;;;;;2069895;28;20496;-69
2021/09/15 05:02:46;;;;;;;14.82;2.80;;;;;;;;;;2070860;28;20034;-70
2021/09/15 05:04:05;;;;;;;5.75;2.15;;;;;;;;;;2072962;28;20503;-70
2021/09/15 05:05:24;;;;;;;5.95;2.50;;;;;;;;;;2075835;28;20487;-70
2021/09/15 05:06:43;;;;;;;5.65;2.17;;;;;;;;;;2071332;28;20022;-70
2021/09/15 05:08:02;;;;;;;8.32;2.40;;;;;;;;;;2076222;28;20030;-70
2021/09/15 05:09:21;;;;;;;6.68;2.33;;;;;;;;;;2071105;28;20026;-70
2021/09/15 05:10:40;;;;;;;5.97;2.30;;;;;;;;;;2071871;28;20539;-71
2021/09/15 05:11:59;;;;;;;6.65;2.30;;;;;;;;;;2069049;28;20022;-69
2021/09/15 05:13:18;;;;;;;4.55;1.98;;;;;;;;;;2071987;28;20376;-69
2021/09/15 05:14:37;;;;;;;7.93;2.53;;;;;;;;;;2074301;28;20026;-69
2021/09/15 05:15:56;;;;;;;12.43;2.78;;;;;;;;;;2075408;28;20104;-69
2021/09/15 05:17:15;;;;;;;10.52;2.28;;;;;;;;;;2082168;28;20104;-70
2021/09/15 05:18:33;;;;;;;5.90;2.60;;;;;;;;;;2074626;28;20497;-70
2021/09/15 05:19:52;;;;;;;9.93;2.25;;;;;;;;;;2072993;28;20034;-70
2021/09/15 05:21:11;;;;;;;8.15;2.03;;;;;;;;;;2072799;28;20121;-69
2021/09/15 05:22:30;;;;;;;11.15;2.72;;;;;;;;;;2072737;28;20057;-70
2021/09/15 05:23:49;;;;;;;17.65;2.90;;;;;;;;;;2073469;28;20029;-70
2021/09/15 05:25:08;;;;;;;12.35;2.80;;;;;;;;;;2075007;28;20022;-70
2021/09/15 05:26:28;;;;;;;7.40;1.90;;;;;;;;;;2074566;28;20034;-71
2021/09/15 05:27:47;;;;;;;8.38;2.42;;;;;;;;;;2077150;28;20033;-69
2021/09/15 05:29:07;;;;;;;9.85;2.13;;;;;;;;;;2073273;28;20420;-71
2021/09/15 05:30:26;;;;;;;8.65;1.90;;;;;;;;;;2067910;28;20026;-71
2021/09/15 05:31:45;;;;;;;10.63;2.25;;;;;;;;;;2075400;28;20022;-70
2021/09/15 05:33:04;;;;;;;5.78;2.38;;;;;;;;;;2074509;28;20405;-71
2021/09/15 05:34:22;;;;;;;5.65;2.10;;;;;;;;;;2070009;28;20034;-71
2021/09/15 05:35:41;;;;;;;14.23;2.03;;;;;;;;;;2073956;28;20105;-71
2021/09/15 05:37:00;;;;;;;18.10;2.45;;;;;;;;;;2074144;28;20488;-69
2021/09/15 05:38:19;;;;;;;13.77;2.50;;;;;;;;;;2072698;28;20488;-69
2021/09/15 05:39:38;;;;;;;15.43;2.17;;;;;;;;;;2074450;28;20057;-70
2021/09/15 05:40:57;;;;;;;28.50;3.55;;;;;;;;;;2072305;28;20034;-70
2021/09/15 05:42:16;;;;;;;42.30;4.13;;;;;;;;;;2071089;28;20030;-70
2021/09/15 05:43:35;;;;;;;21.52;2.83;;;;;;;;;;2076310;28;20026;-70
2021/09/15 05:44:54;;;;;;;34.67;3.15;;;;;;;;;;2071101;28;20033;-69
2021/09/15 05:46:13;;;;;;;32.80;3.53;;;;;;;;;;2077078;28;20463;-69
2021/09/15 05:47:32;;;;;;;21.65;3.20;;;;;;;;;;2071314;28;20030;-69
2021/09/15 05:48:51;;;;;;;14.07;3.00;;;;;;;;;;2074274;28;20037;-69
2021/09/15 05:50:10;;;;;;;21.77;2.58;;;;;;;;;;2070654;28;20112;-69
2021/09/15 05:51:29;;;;;;;10.65;2.20;;;;;;;;;;2071225;28;20042;-69
2021/09/15 05:52:48;;;;;;;16.95;2.90;;;;;;;;;;2071987;28;20480;-69
2021/09/15 05:54:08;;;;;;;19.67;3.25;;;;;;;;;;2071746;28;20018;-69
2021/09/15 05:55:27;;;;;;;12.10;1.95;;;;;;;;;;2072950;28;20022;-70
2021/09/15 05:56:46;;;;;;;15.00;2.50;;;;;;;;;;2070641;28;20022;-70
2021/09/15 05:58:05;;;;;;;5.90;1.95;;;;;;;;;;2072769;28;20471;-69
2021/09/15 05:59:24;;;;;;;12.57;2.10;;;;;;;;;;2074094;28;20484;-69
2021/09/15 06:00:43;;;;;;;12.80;1.75;;;;;;;;;;2068411;28;20034;-69
2021/09/15 06:02:02;;;;;;;5.65;1.65;;;;;;;;;;2072193;28;20062;-69
2021/09/15 06:03:20;;;;;;;3.65;1.65;;;;;;;;;;2072873;28;20061;-69
2021/09/15 06:04:40;;;;;;;5.82;2.00;;;;;;;;;;2074799;28;20454;-69
2021/09/15 06:05:58;;;;;;;9.43;1.85;;;;;;;;;;2076583;28;20038;-69
2021/09/15 06:07:17;;;;;;;3.33;1.52;;;;;;;;;;2073507;28;20030;-69
2021/09/15 06:08:36;;;;;;;6.80;1.50;;;;;;;;;;2079191;28;20038;-69
2021/09/15 06:09:55;;;;;;;6.30;1.60;;;;;;;;;;2076066;28;20424;-69
2021/09/15 06:11:13;;;;;;;7.40;1.63;;;;;;;;;;2068143;28;20417;-69
2021/09/15 06:12:32;;;;;;;11.48;1.77;;;;;;;;;;2075048;28;20021;-69
2021/09/15 06:13:53;;;;;;;3.35;1.08;;;;;;;;;;2073958;28;20018;-69
2021/09/15 06:15:12;;;;;;;5.03;1.73;;;;;;;;;;2073270;28;20026;-69
2021/09/15 06:16:31;;;;;;;9.45;1.63;;;;;;;;;;2070935;28;20038;-69
2021/09/15 06:17:50;;;;;;;11.05;1.67;;;;;;;;;;2070493;28;20489;-69
2021/09/15 06:19:09;;;;;;;5.35;1.48;;;;;;;;;;2073008;28;20025;-69
2021/09/15 06:20:28;;;;;;;4.65;1.10;;;;;;;;;;2074058;28;20030;-69
2021/09/15 06:21:47;;;;;;;3.05;1.40;;;;;;;;;;2072842;28;20450;-69
2021/09/15 06:23:06;;;;;;;3.97;0.90;;;;;;;;;;2073455;28;20397;-68
2021/09/15 06:24:25;;;;;;;4.30;1.52;;;;;;;;;;2074316;28;20038;-68
2021/09/15 06:25:44;;;;;;;8.13;1.40;;;;;;;;;;2077122;28;20395;-69
2021/09/15 06:27:03;;;;;;;4.50;1.20;;;;;;;;;;2073060;28;20022;-69
2021/09/15 06:28:22;;;;;;;6.30;1.23;;;;;;;;;;2074748;28;20034;-69
2021/09/15 06:29:41;;;;;;;6.78;1.30;;;;;;;;;;2074573;28;20034;-71
2021/09/15 06:31:00;;;;;;;3.08;1.23;;;;;;;;;;2069366;28;20449;-69
2021/09/15 06:32:20;;;;;;;4.63;1.40;;;;;;;;;;2072748;28;20393;-68
2021/09/15 06:33:38;;;;;;;3.15;1.27;;;;;;;;;;2074809;28;20093;-69
2021/09/15 06:34:57;;;;;;;3.90;1.48;;;;;;;;;;2071468;28;20129;-69
2021/09/15 06:36:16;;;;;;;2.92;1.23;;;;;;;;;;2072203;28;20112;-69
2021/09/15 06:37:35;;;;;;;6.45;1.85;;;;;;;;;;2074091;28;20018;-70
2021/09/15 06:38:54;;;;;;;6.03;1.15;;;;;;;;;;2074880;28;20384;-69
2021/09/15 06:40:13;;;;;;;8.32;1.38;;;;;;;;;;2073020;28;20041;-69
2021/09/15 06:41:32;;;;;;;11.77;1.65;;;;;;;;;;2070905;28;20508;-70
2021/09/15 06:42:50;;;;;;;8.65;1.70;;;;;;;;;;2072270;28;20029;-69
2021/09/15 06:44:09;;;;;;;2.33;0.90;;;;;;;;;;2073745;28;20022;-69
2021/09/15 06:45:28;;;;;;;7.78;1.58;;;;;;;;;;2073874;28;20293;-69
2021/09/15 06:46:47;;;;;;;3.95;1.27;;;;;;;;;;2074595;28;20037;-70
2021/09/15 06:48:06;;;;;;;7.25;1.58;;;;;;;;;;2070374;28;20022;-70
2021/09/15 06:49:25;;;;;;;3.72;1.45;;;;;;;;;;2071459;28;20030;-69
2021/09/15 06:50:44;;;;;;;1.35;1.25;;;;;;;;;;2072128;28;20388;-69
2021/09/15 06:52:03;;;;;;;5.15;2.35;;;;;;;;;;2073092;28;20026;-68
2021/09/15 06:53:21;;;;;;;3.35;1.48;;;;;;;;;;2073474;28;20022;-68
2021/09/15 06:54:40;;;;;;;1.38;1.10;;;;;;;;;;2073872;28;20018;-68
2021/09/15 06:55:59;;;;;;;8.65;1.40;;;;;;;;;;2071368;28;20025;-69
2021/09/15 06:57:18;;;;;;;4.90;1.80;;;;;;;;;;2070662;28;20472;-68
2021/09/15 06:58:37;;;;;;;5.20;1.50;;;;;;;;;;2072671;28;20030;-69
2021/09/15 06:59:56;;;;;;;3.22;1.58;;;;;;;;;;2070087;28;20030;-69
2021/09/15 07:01:14;;;;;;;5.85;1.83;;;;;;;;;;2071912;28;20034;-69
2021/09/15 07:02:33;;;;;;;5.65;1.63;;;;;;;;;;2073064;28;20034;-68
2021/09/15 07:03:52;;;;;;;4.20;1.63;;;;;;;;;;2070380;28;20081;-69
2021/09/15 07:05:11;;;;;;;3.75;1.30;;;;;;;;;;2078678;28;20037;-69
2021/09/15 07:06:30;;;;;;;1.65;1.20;;;;;;;;;;2074768;28;20034;-69
2021/09/15 07:07:49;;;;;;;4.43;1.70;;;;;;;;;;2072791;28;20030;-69
2021/09/15 07:09:09;;;;;;;5.05;1.27;;;;;;;;;;2073395;28;20029;-69
2021/09/15 07:10:31;;;;;;;4.43;1.40;;;;;;;;;;2072480;28;20476;-69
2021/09/15 07:11:50;;;;;;;8.77;1.27;;;;;;;;;;2073014;28;20500;-68
2021/09/15 07:13:09;;;;;;;2.30;1.08;;;;;;;;;;2073893;28;20029;-69
2021/09/15 07:14:28;;;;;;;2.20;0.85;;;;;;;;;;2068299;28;20049;-70
2021/09/15 07:15:47;;;;;;;1.40;1.05;;;;;;;;;;2073356;28;20416;-69
2021/09/15 07:17:06;;;;;;;4.53;1.23;;;;;;;;;;2070924;28;20030;-69
2021/09/15 07:18:26;;;;;;;3.08;1.02;;;;;;;;;;2073813;28;20515;-69
2021/09/15 07:19:44;;;;;;;2.28;1.00;;;;;;;;;;2072526;28;20563;-69
2021/09/15 07:21:03;;;;;;;1.90;1.15;;;;;;;;;;2069360;28;20057;-69
2021/09/15 07:22:22;;;;;;;1.35;1.00;;;;;;;;;;2073919;28;20026;-69
2021/09/15 07:23:41;;;;;;;2.38;1.02;;;;;;;;;;2072897;28;20029;-69
2021/09/15 07:25:00;;;;;;;5.65;1.30;;;;;;;;;;2074528;28;20022;-69
2021/09/15 07:26:19;;;;;;;3.92;1.23;;;;;;;;;;2075625;28;20057;-68
2021/09/15 07:27:39;;;;;;;4.72;1.10;;;;;;;;;;2070247;28;20026;-70
2021/09/15 07:28:57;;;;;;;5.55;1.45;;;;;;;;;;2072973;28;20432;-69
2021/09/15 07:30:17;;;;;;;1.02;0.93;;;;;;;;;;2072814;28;20025;-69
2021/09/15 07:31:38;;;;;;;3.85;1.30;;;;;;;;;;2066636;28;20705;-69
2021/09/15 07:32:57;;;;;;;2.00;1.10;;;;;;;;;;2071752;28;20025;-69
2021/09/15 07:34:15;;;;;;;5.60;1.38;;;;;;;;;;2071681;28;20026;-68
2021/09/15 07:35:34;;;;;;;6.50;1.02;;;;;;;;;;2073450;28;20420;-69
2021/09/15 07:36:54;;;;;;;3.30;1.02;;;;;;;;;;2071573;28;20097;-69
2021/09/15 07:38:13;;;;;;;2.63;0.85;;;;;;;;;;2068113;28;20488;-69
2021/09/15 07:39:31;;;;;;;3.05;0.90;;;;;;;;;;2071267;28;20042;-69
2021/09/15 07:40:50;;;;;;;2.72;0.88;;;;;;;;;;2070784;28;20116;-69
2021/09/15 07:42:09;;;;;;;6.00;1.52;;;;;;;;;;2072343;28;20487;-70
2021/09/15 07:43:28;;;;;;;8.23;1.50;;;;;;;;;;2071875;28;20030;-69
2021/09/15 07:44:47;;;;;;;10.27;1.50;;;;;;;;;;2073784;28;20042;-69
2021/09/15 07:46:06;;;;;;;4.13;1.13;;;;;;;;;;2072974;28;20041;-69
2021/09/15 07:47:25;;;;;;;1.55;0.82;;;;;;;;;;2070588;28;20057;-69
2021/09/15 07:48:43;;;;;;;5.05;0.60;;;;;;;;;;2068307;28;20022;-69
2021/09/15 07:50:03;;;;;;;1.25;0.80;;;;;;;;;;2079819;28;20026;-69
2021/09/15 07:51:22;;;;;;;14.18;1.30;;;;;;;;;;2074521;28;20041;-69
2021/09/15 07:52:41;;;;;;;5.47;1.48;;;;;;;;;;2070821;28;20022;-69
2021/09/15 07:54:01;;;;;;;4.97;1.25;;;;;;;;;;2071981;28;20034;-69
2021/09/15 07:55:20;;;;;;;4.18;0.85;;;;;;;;;;2070706;28;20433;-70
2021/09/15 07:56:39;;;;;;;2.40;0.90;;;;;;;;;;2072703;28;20117;-69
2021/09/15 07:57:57;;;;;;;2.47;0.90;;;;;;;;;;2071849;28;20030;-69
2021/09/15 07:59:16;;;;;;;3.10;0.90;;;;;;;;;;2068799;28;20026;-69
2021/09/15 08:00:36;;;;;;;5.07;1.40;;;;;;;;;;2069807;28;20026;-70